Time;durP1;ratioP1;P1;durP2;ratioP2;P2;SDS_P1;SDS_P2;PMS_P1;PMS_P2;Temp;Humidity;BMP_temperature;BMP_pressure;BME280_temperature;BME280_humidity;BME280_pressure;Samples;Min_cycle;Max_cycle;Signal;HPM_P1;HPM_P2
2021/08/07 00:01:12;;;;;;;;;;;;;;;15.32;84.46;99771.94;1441706;90;20279;-83
2021/08/07 00:03:38;;;;;;;;;;;;;;;15.33;84.43;99772.28;1447517;90;20824;-83
2021/08/07 00:06:04;;;;;;;;;;;;;;;15.34;84.63;99771.25;1438944;90;20295;-82
2021/08/07 00:08:30;;;;;;;;;;;;;;;15.34;84.52;99771.25;1448228;90;20325;-82
2021/08/07 00:10:56;;;;;;;;;;;;;;;15.40;84.87;99774.16;1447431;90;20427;-82
2021/08/07 00:13:22;;;;;;;;;;;;;;;15.41;84.42;99778.47;1445472;90;20295;-82
2021/08/07 00:15:48;;;;;;;;;;;;;;;15.40;84.45;99778.98;1445057;90;20221;-82
2021/08/07 00:18:14;;;;;;;;;;;;;;;15.42;84.84;99776.10;1443537;90;20295;-82
2021/08/07 00:20:40;;;;;;;;;;;;;;;15.43;84.40;99777.25;1433543;90;20394;-83
2021/08/07 00:23:05;;;;;;;;;;;;;;;15.42;84.42;99778.28;1434210;90;20404;-83
2021/08/07 00:25:31;;;;;;;;;;;;;;;15.42;85.31;99780.10;1446385;90;20301;-83
2021/08/07 00:27:57;;;;;;;;;;;;;;;15.44;84.82;99782.08;1443706;90;20332;-83
2021/08/07 00:30:23;;;;;;;;;;;;;;;15.44;84.84;99789.56;1422638;90;20815;-83
2021/08/07 00:32:49;;;;;;;;;;;;;;;15.44;84.67;99780.73;1442638;90;20213;-82
2021/08/07 00:35:15;;;;;;;;;;;;;;;15.44;84.24;99780.73;1438735;90;20390;-83
2021/08/07 00:37:41;;;;;;;;;;;;;;;15.44;84.24;99782.08;1451556;90;20294;-83
2021/08/07 00:40:09;;;;;;;;;;;;;;;15.44;84.06;99779.41;1440533;90;20720;-83
2021/08/07 00:42:35;;;;;;;;;;;;;;;15.42;84.83;99774.77;1452106;90;20749;-83
2021/08/07 00:45:01;;;;;;;;;;;;;;;15.44;84.41;99782.08;1445607;90;20406;-83
2021/08/07 00:47:27;;;;;;;;;;;;;;;15.42;84.96;99774.77;1444303;91;20236;-83
2021/08/07 00:49:53;;;;;;;;;;;;;;;15.39;84.68;99772.50;1444015;90;20371;-83
2021/08/07 00:52:19;;;;;;;;;;;;;;;15.34;84.64;99779.25;1439525;91;20771;-83
2021/08/07 00:54:45;;;;;;;;;;;;;;;15.30;84.50;99782.48;1451059;91;20794;-82
2021/08/07 00:57:10;;;;;;;;;;;;;;;15.24;84.93;99784.08;1440009;91;20266;-83
2021/08/07 00:59:36;;;;;;;;;;;;;;;15.19;85.06;99785.20;1425580;91;20362;-82
2021/08/07 01:02:05;;;;;;;;;;;;;;;15.14;86.65;99794.78;1445578;90;20780;-83
2021/08/07 01:04:41;;;;;;;;;;;;;;;15.10;86.13;99786.33;1445253;91;21080;-82
2021/08/07 01:07:22;;;;;;;;;;;;;;;15.06;86.43;99793.06;1444480;91;20228;-83
2021/08/07 01:09:58;;;;;;;;;;;;;;;15.00;86.98;99789.33;1433517;90;20273;-83
2021/08/07 01:12:43;;;;;;;;;;;;;;;14.95;86.94;99781.59;1432168;91;20265;-83
2021/08/07 01:15:11;;;;;;;;;;;;;;;14.94;86.21;99786.62;1446549;91;20272;-82
2021/08/07 01:17:39;;;;;;;;;;;;;;;14.93;85.98;99784.44;1436157;91;20244;-83
2021/08/07 01:20:12;;;;;;;;;;;;;;;14.93;86.52;99784.44;1456430;91;20295;-83
2021/08/07 01:22:44;;;;;;;;;;;;;;;14.93;86.35;99790.28;1445765;91;20316;-83
2021/08/07 01:25:13;;;;;;;;;;;;;;;14.96;86.41;99789.89;1437859;91;20257;-83
2021/08/07 01:27:40;;;;;;;;;;;;;;;14.96;86.30;99785.41;1442510;91;20434;-83
2021/08/07 01:30:10;;;;;;;;;;;;;;;14.98;86.29;99787.87;1425572;91;20886;-82
2021/08/07 01:32:37;;;;;;;;;;;;;;;14.99;86.33;99780.18;1433813;90;20987;-83
2021/08/07 01:35:04;;;;;;;;;;;;;;;15.02;86.15;99783.83;1441542;91;20431;-83
2021/08/07 01:37:31;;;;;;;;;;;;;;;15.06;86.09;99790.41;1444275;91;20340;-84
2021/08/07 01:39:57;;;;;;;;;;;;;;;15.06;86.05;99780.56;1440515;91;20344;-83
2021/08/07 01:42:25;;;;;;;;;;;;;;;15.09;85.83;99782.02;1442590;91;20236;-83
2021/08/07 01:44:51;;;;;;;;;;;;;;;15.10;86.07;99783.18;1432162;90;20228;-83
2021/08/07 01:47:20;;;;;;;;;;;;;;;15.12;86.17;99786.97;1445649;90;20749;-83
2021/08/07 01:49:50;;;;;;;;;;;;;;;15.14;85.89;99785.45;1450744;91;20448;-83
2021/08/07 01:52:18;;;;;;;;;;;;;;;15.14;86.76;99790.27;1440256;91;20537;-83
2021/08/07 01:54:48;;;;;;;;;;;;;;;15.13;86.37;99783.27;1448690;91;20365;-83
2021/08/07 01:57:18;;;;;;;;;;;;;;;15.12;86.10;99786.45;1440076;91;20309;-83
2021/08/07 01:59:45;;;;;;;;;;;;;;;15.13;85.66;99789.94;1437788;91;20250;-83
2021/08/07 02:02:12;;;;;;;;;;;;;;;15.13;85.42;99791.27;1445011;90;20420;-84
2021/08/07 02:04:39;;;;;;;;;;;;;;;15.11;85.41;99793.32;1433404;91;20294;-83
2021/08/07 02:07:05;;;;;;;;;;;;;;;15.12;85.14;99785.12;1453945;91;20395;-83
2021/08/07 02:09:31;;;;;;;;;;;;;;;15.14;85.04;99786.78;1443002;91;20347;-83
2021/08/07 02:11:59;;;;;;;;;;;;;;;15.13;84.88;99788.60;1434169;91;20272;-83
2021/08/07 02:14:26;;;;;;;;;;;;;;;15.12;85.04;99792.30;1446270;90;20251;-83
2021/08/07 02:16:52;;;;;;;;;;;;;;;15.09;84.79;99792.68;1437426;91;20413;-82
2021/08/07 02:19:18;;;;;;;;;;;;;;;15.06;85.10;99793.06;1444124;91;20354;-83
2021/08/07 02:21:44;;;;;;;;;;;;;;;14.98;85.59;99800.68;1439270;91;20733;-83
2021/08/07 02:24:10;;;;;;;;;;;;;;;14.89;85.60;99807.16;1442747;91;20340;-83
2021/08/07 02:26:36;;;;;;;;;;;;;;;14.82;85.58;99811.10;1437214;91;20340;-83
2021/08/07 02:29:04;;;;;;;;;;;;;;;14.74;85.71;99808.56;1441265;91;20266;-83
2021/08/07 02:31:31;;;;;;;;;;;;;;;14.70;85.78;99811.78;1443904;91;20243;-83
2021/08/07 02:33:58;;;;;;;;;;;;;;;14.62;85.85;99820.22;1421604;91;20728;-83
2021/08/07 02:36:24;;;;;;;;;;;;;;;14.58;85.69;99824.25;1450185;91;20243;-84
2021/08/07 02:38:51;;;;;;;;;;;;;;;14.52;85.49;99825.01;1428536;91;20712;-83
2021/08/07 02:41:17;;;;;;;;;;;;;;;14.50;85.66;99832.35;1441542;91;20280;-83
2021/08/07 02:43:45;;;;;;;;;;;;;;;14.47;85.47;99829.22;1431324;91;20785;-83
2021/08/07 02:46:11;;;;;;;;;;;;;;;14.48;85.97;99828.22;1435787;90;20398;-83
2021/08/07 02:48:38;;;;;;;;;;;;;;;14.50;85.96;99831.50;1453029;90;20244;-83
2021/08/07 02:51:04;;;;;;;;;;;;;;;14.52;86.11;99837.50;1432687;90;20915;-83
2021/08/07 02:53:31;;;;;;;;;;;;;;;14.54;86.49;99836.81;1449496;90;20332;-83
2021/08/07 02:55:58;;;;;;;;;;;;;;;14.55;86.06;99845.11;1440469;90;20377;-83
2021/08/07 02:58:25;;;;;;;;;;;;;;;14.57;86.30;99848.42;1445445;90;20250;-83
2021/08/07 03:00:51;;;;;;;;;;;;;;;14.59;86.27;99851.22;1443723;90;20294;-83
2021/08/07 03:03:17;;;;;;;;;;;;;;;14.63;86.19;99859.66;1444267;90;20380;-83
2021/08/07 03:05:43;;;;;;;;;;;;;;;14.65;86.00;99861.63;1444436;90;20281;-83
2021/08/07 03:08:09;;;;;;;;;;;;;;;14.67;85.59;99860.91;1445875;89;20900;-83
2021/08/07 03:10:35;;;;;;;;;;;;;;;14.68;85.76;99866.58;1441674;90;20228;-83
2021/08/07 03:13:02;;;;;;;;;;;;;;;14.72;86.09;99868.36;1446793;90;20391;-83
2021/08/07 03:15:29;;;;;;;;;;;;;;;14.73;86.25;99870.84;1438952;90;20281;-83
2021/08/07 03:17:55;;;;;;;;;;;;;;;14.76;86.25;99866.47;1446893;90;20264;-83
2021/08/07 03:20:30;;;;;;;;;;;;;;;14.78;86.30;99859.09;1439855;90;20280;-84
2021/08/07 03:22:49;;;;;;;;;;;;;;;14.82;85.94;99862.23;1450800;90;20363;-83
2021/08/07 03:25:15;;;;;;;;;;;;;;;14.85;86.03;99858.67;1433978;90;20933;-84
2021/08/07 03:27:41;;;;;;;;;;;;;;;14.89;86.03;99863.92;1444000;90;20893;-83
2021/08/07 03:30:08;;;;;;;;;;;;;;;14.95;85.85;99862.34;1436978;90;20829;-83
2021/08/07 03:32:34;;;;;;;;;;;;;;;15.02;85.70;99869.09;1446911;90;20294;-84
2021/08/07 03:35:00;;;;;;;;;;;;;;;15.05;85.61;99865.53;1452648;90;20971;-83
2021/08/07 03:37:26;;;;;;;;;;;;;;;15.12;85.40;99870.41;1444863;90;20280;-84
2021/08/07 03:39:51;;;;;;;;;;;;;;;15.19;85.35;99869.16;1440017;90;20295;-84
2021/08/07 03:42:17;;;;;;;;;;;;;;;15.29;85.01;99862.16;1434618;89;20377;-83
2021/08/07 03:44:43;;;;;;;;;;;;;;;15.34;84.61;99864.56;1440886;90;20376;-83
2021/08/07 03:47:09;;;;;;;;;;;;;;;15.39;84.64;99865.30;1448611;90;20258;-83
2021/08/07 03:49:35;;;;;;;;;;;;;;;15.43;84.54;99871.09;1447173;91;20377;-84
2021/08/07 03:52:01;;;;;;;;;;;;;;;15.45;84.44;99861.04;1443256;90;20309;-83
2021/08/07 03:54:27;;;;;;;;;;;;;;;15.47;84.12;99864.34;1437888;91;20236;-83
2021/08/07 03:56:53;;;;;;;;;;;;;;;15.47;84.11;99864.34;1440864;91;20830;-83
2021/08/07 03:59:19;;;;;;;;;;;;;;;15.47;83.85;99867.02;1440559;90;20310;-83
2021/08/07 04:01:45;;;;;;;;;;;;;;;15.48;83.69;99872.17;1441472;91;20295;-84
2021/08/07 04:04:11;;;;;;;;;;;;;;;15.50;83.59;99867.96;1448608;91;20293;-83
2021/08/07 04:06:37;;;;;;;;;;;;;;;15.53;83.46;99871.58;1446914;91;20294;-83
2021/08/07 04:09:03;;;;;;;;;;;;;;;15.60;83.58;99868.46;1448493;91;20852;-83
2021/08/07 04:11:29;;;;;;;;;;;;;;;15.66;83.65;99868.20;1442946;91;20228;-83
2021/08/07 04:13:55;;;;;;;;;;;;;;;15.73;82.97;99861.91;1438044;91;20376;-83
2021/08/07 04:16:21;;;;;;;;;;;;;;;15.79;82.82;99863.81;1433609;91;21018;-83
2021/08/07 04:18:48;;;;;;;;;;;;;;;15.86;82.78;99863.03;1433022;91;20258;-83
2021/08/07 04:21:14;;;;;;;;;;;;;;;15.92;82.77;99859.58;1441636;91;20242;-84
2021/08/07 04:23:40;;;;;;;;;;;;;;;15.94;82.37;99861.52;1444252;91;20309;-83
2021/08/07 04:26:06;;;;;;;;;;;;;;;15.97;81.97;99862.48;1444258;91;20280;-83
2021/08/07 04:28:32;;;;;;;;;;;;;;;15.99;81.97;99860.42;1438945;91;20882;-83
2021/08/07 04:30:58;;;;;;;;;;;;;;;16.02;81.75;99861.36;1440617;91;20280;-83
2021/08/07 04:33:23;;;;;;;;;;;;;;;16.02;81.47;99866.70;1432344;91;20331;-83
2021/08/07 04:35:49;;;;;;;;;;;;;;;16.00;81.29;99860.76;1442189;91;20861;-83
2021/08/07 04:38:15;;;;;;;;;;;;;;;15.95;81.23;99863.19;1429467;91;20227;-83
2021/08/07 04:40:41;;;;;;;;;;;;;;;15.89;81.37;99861.30;1440294;90;20347;-83
2021/08/07 04:43:07;;;;;;;;;;;;;;;15.84;81.30;99870.40;1442177;91;20403;-83
2021/08/07 04:45:33;;;;;;;;;;;;;;;15.78;81.73;99871.48;1440080;90;20296;-83
2021/08/07 04:48:04;;;;;;;;;;;;;;;15.79;81.91;99873.64;1444070;90;20857;-83
2021/08/07 04:50:33;;;;;;;;;;;;;;;15.77;82.03;99871.70;1415349;90;20838;-83
2021/08/07 04:53:00;;;;;;;;;;;;;;;15.76;82.48;99874.84;1446727;90;20279;-83
2021/08/07 04:55:26;;;;;;;;;;;;;;;15.82;82.53;99876.43;1443673;90;20257;-83
2021/08/07 04:57:53;;;;;;;;;;;;;;;15.87;82.40;99875.34;1442029;90;20406;-83
2021/08/07 05:00:20;;;;;;;;;;;;;;;15.98;82.20;99869.46;1429032;90;20273;-82
2021/08/07 05:02:46;;;;;;;;;;;;;;;16.09;82.34;99871.58;1436259;90;20280;-83
2021/08/07 05:05:13;;;;;;;;;;;;;;;16.20;82.18;99878.22;1439625;90;20405;-83
2021/08/07 05:07:40;;;;;;;;;;;;;;;16.34;81.95;99886.61;1445809;90;21187;-83
2021/08/07 05:10:08;;;;;;;;;;;;;;;16.43;80.92;99877.91;1450192;90;20317;-84
2021/08/07 05:12:34;;;;;;;;;;;;;;;16.54;81.25;99878.66;1434214;90;20994;-83
2021/08/07 05:15:01;;;;;;;;;;;;;;;16.62;80.51;99883.83;1448133;90;20244;-83
2021/08/07 05:17:27;;;;;;;;;;;;;;;16.72;80.61;99889.33;1445383;90;20370;-83
2021/08/07 05:19:53;;;;;;;;;;;;;;;16.82;80.67;99886.59;1443858;90;20279;-83
2021/08/07 05:22:20;;;;;;;;;;;;;;;16.89;80.13;99894.13;1449451;90;20488;-83
2021/08/07 05:24:46;;;;;;;;;;;;;;;16.95;79.79;99891.17;1440677;90;20265;-84
2021/08/07 05:27:12;;;;;;;;;;;;;;;17.01;79.67;99894.87;1420350;90;20347;-83
2021/08/07 05:29:38;;;;;;;;;;;;;;;17.03;79.63;99886.97;1439883;90;20280;-83
2021/08/07 05:32:04;;;;;;;;;;;;;;;17.08;79.52;99884.49;1438670;90;20257;-83
2021/08/07 05:34:30;;;;;;;;;;;;;;;17.12;79.34;99891.09;1445655;90;20242;-83
2021/08/07 05:36:56;;;;;;;;;;;;;;;17.18;79.52;99898.00;1454352;90;20405;-83
2021/08/07 05:39:22;;;;;;;;;;;;;;;17.24;79.54;99898.52;1442363;90;20242;-83
2021/08/07 05:41:48;;;;;;;;;;;;;;;17.31;79.93;99902.01;1446793;90;20235;-83
2021/08/07 05:44:14;;;;;;;;;;;;;;;17.42;79.74;99901.41;1432596;90;20266;-83
2021/08/07 05:46:40;;;;;;;;;;;;;;;17.50;78.81;99899.05;1435249;90;20310;-83
2021/08/07 05:49:06;;;;;;;;;;;;;;;17.60;78.56;99893.58;1448300;90;20294;-83
2021/08/07 05:51:34;;;;;;;;;;;;;;;17.73;77.89;99903.98;1437816;90;20318;-84
2021/08/07 05:54:00;;;;;;;;;;;;;;;17.83;76.25;99902.25;1441424;90;20581;-83
2021/08/07 05:56:25;;;;;;;;;;;;;;;17.93;77.03;99910.17;1441367;89;20328;-83
2021/08/07 05:58:51;;;;;;;;;;;;;;;18.08;77.21;99913.13;1446220;90;20347;-83
2021/08/07 06:01:17;;;;;;;;;;;;;;;18.22;76.72;99913.41;1450516;90;20350;-84
2021/08/07 06:03:43;;;;;;;;;;;;;;;18.33;76.17;99914.11;1442899;90;20317;-83
2021/08/07 06:06:09;;;;;;;;;;;;;;;18.40;74.80;99914.89;1450341;90;20336;-83
2021/08/07 06:08:35;;;;;;;;;;;;;;;18.49;75.30;99913.62;1433594;90;20830;-83
2021/08/07 06:11:01;;;;;;;;;;;;;;;18.59;74.54;99914.53;1447654;90;20562;-83
2021/08/07 06:13:27;;;;;;;;;;;;;;;18.67;74.56;99912.10;1441544;90;20274;-83
2021/08/07 06:15:53;;;;;;;;;;;;;;;18.74;74.48;99911.60;1446084;90;20397;-84
2021/08/07 06:18:19;;;;;;;;;;;;;;;18.82;74.24;99912.70;1447028;90;20287;-83
2021/08/07 06:20:46;;;;;;;;;;;;;;;18.93;74.16;99912.52;1444104;89;20830;-83
2021/08/07 06:23:12;;;;;;;;;;;;;;;19.01;74.04;99914.14;1438850;90;20304;-83
2021/08/07 06:25:38;;;;;;;;;;;;;;;19.12;72.86;99908.09;1440585;90;20294;-84
2021/08/07 06:28:05;;;;;;;;;;;;;;;19.23;73.19;99906.06;1438003;90;20785;-83
2021/08/07 06:30:31;;;;;;;;;;;;;;;19.39;73.59;99907.38;1437682;90;20279;-84
2021/08/07 06:32:57;;;;;;;;;;;;;;;19.53;72.54;99904.08;1440915;90;20827;-83
2021/08/07 06:35:24;;;;;;;;;;;;;;;19.65;71.76;99909.09;1443686;90;20265;-83
2021/08/07 06:37:50;;;;;;;;;;;;;;;19.78;71.80;99903.58;1440404;90;20765;-82
2021/08/07 06:40:16;;;;;;;;;;;;;;;19.83;70.11;99898.91;1446133;90;20243;-83
2021/08/07 06:42:42;;;;;;;;;;;;;;;19.94;70.74;99909.42;1447669;90;20272;-83
2021/08/07 06:45:09;;;;;;;;;;;;;;;19.97;70.61;99903.11;1442498;90;20332;-82
2021/08/07 06:47:35;;;;;;;;;;;;;;;20.07;70.35;99906.61;1446103;90;20787;-83
2021/08/07 06:50:03;;;;;;;;;;;;;;;20.23;70.17;99914.09;1449311;90;20287;-83
2021/08/07 06:52:29;;;;;;;;;;;;;;;20.36;69.71;99912.30;1446815;90;20359;-83
2021/08/07 06:54:54;;;;;;;;;;;;;;;20.48;69.71;99916.72;1433970;90;20280;-83
2021/08/07 06:57:21;;;;;;;;;;;;;;;20.59;68.40;99916.49;1432988;90;20311;-83
2021/08/07 06:59:47;;;;;;;;;;;;;;;20.68;68.17;99916.48;1447846;90;20250;-83
2021/08/07 07:02:13;;;;;;;;;;;;;;;20.78;68.49;99918.64;1437878;90;20376;-83
2021/08/07 07:04:39;;;;;;;;;;;;;;;20.84;67.63;99915.05;1447231;90;20713;-83
2021/08/07 07:07:05;;;;;;;;;;;;;;;20.94;67.57;99902.38;1445524;90;20257;-83
2021/08/07 07:09:32;;;;;;;;;;;;;;;21.04;67.68;99902.67;1443894;90;20301;-83
2021/08/07 07:11:58;;;;;;;;;;;;;;;21.17;67.48;99909.19;1439391;90;20281;-83
2021/08/07 07:14:24;;;;;;;;;;;;;;;21.31;68.14;99922.45;1452224;89;20363;-82
2021/08/07 07:16:50;;;;;;;;;;;;;;;21.49;67.82;99917.04;1438297;90;20333;-82
2021/08/07 07:19:16;;;;;;;;;;;;;;;21.60;66.41;99921.59;1450108;89;20265;-82
2021/08/07 07:21:43;;;;;;;;;;;;;;;21.68;65.01;99927.70;1449667;90;20838;-83
2021/08/07 07:24:09;;;;;;;;;;;;;;;21.75;64.70;99931.09;1448562;90;20354;-83
2021/08/07 07:26:35;;;;;;;;;;;;;;;21.85;65.39;99931.34;1436633;90;20301;-82
2021/08/07 07:29:01;;;;;;;;;;;;;;;21.92;64.02;99932.57;1436405;90;20347;-82
2021/08/07 07:31:27;;;;;;;;;;;;;;;21.99;64.33;99927.37;1445940;89;20853;-83
2021/08/07 07:33:54;;;;;;;;;;;;;;;22.14;65.29;99928.23;1444121;90;20279;-83
2021/08/07 07:36:20;;;;;;;;;;;;;;;22.28;64.82;99924.27;1446542;90;20690;-83
2021/08/07 07:38:46;;;;;;;;;;;;;;;22.43;64.68;99929.16;1444806;90;20343;-82
2021/08/07 07:41:12;;;;;;;;;;;;;;;22.60;64.06;99932.47;1439103;90;20288;-83
2021/08/07 07:43:39;;;;;;;;;;;;;;;22.70;62.91;99919.17;1446972;90;20893;-83
2021/08/07 07:46:05;;;;;;;;;;;;;;;22.80;61.35;99924.78;1445584;90;20228;-84
2021/08/07 07:48:31;;;;;;;;;;;;;;;22.88;61.51;99924.41;1435337;90;20384;-82
2021/08/07 07:50:58;;;;;;;;;;;;;;;22.92;60.95;99923.38;1446197;90;20517;-83
2021/08/07 07:53:24;;;;;;;;;;;;;;;23.05;59.50;99927.72;1444664;90;20236;-83
2021/08/07 07:55:50;;;;;;;;;;;;;;;23.23;61.79;99934.25;1449555;90;20384;-83
2021/08/07 07:58:16;;;;;;;;;;;;;;;23.35;60.06;99935.00;1448105;90;20333;-83
2021/08/07 08:00:42;;;;;;;;;;;;;;;23.47;60.22;99940.86;1450534;90;20360;-82
2021/08/07 08:03:08;;;;;;;;;;;;;;;23.56;57.55;99942.09;1442693;90;20321;-83
2021/08/07 08:05:34;;;;;;;;;;;;;;;23.60;57.78;99945.41;1441507;90;20829;-82
2021/08/07 08:08:00;;;;;;;;;;;;;;;23.67;55.97;99945.24;1446031;90;20250;-84
2021/08/07 08:10:27;;;;;;;;;;;;;;;23.71;57.49;99956.41;1416919;90;20339;-82
2021/08/07 08:12:54;;;;;;;;;;;;;;;23.77;57.27;99958.15;1431585;90;20324;-83
2021/08/07 08:15:19;;;;;;;;;;;;;;;23.86;57.49;99960.72;1446804;90;20286;-83
2021/08/07 08:17:46;;;;;;;;;;;;;;;23.93;57.48;99957.84;1439902;90;20288;-82
2021/08/07 08:20:12;;;;;;;;;;;;;;;24.00;57.44;99954.45;1444545;90;20264;-82
2021/08/07 08:22:39;;;;;;;;;;;;;;;24.09;56.91;99963.77;1451274;90;20457;-83
2021/08/07 08:25:09;;;;;;;;;;;;;;;24.19;55.95;99965.25;1434772;90;20286;-83
2021/08/07 08:27:35;;;;;;;;;;;;;;;24.28;55.92;99963.78;1441364;90;20772;-83
2021/08/07 08:30:02;;;;;;;;;;;;;;;24.46;57.38;99956.47;1444815;90;20414;-82
2021/08/07 08:32:28;;;;;;;;;;;;;;;24.56;56.54;99963.35;1441588;90;20303;-82
2021/08/07 08:34:54;;;;;;;;;;;;;;;24.74;56.06;99969.83;1441388;90;20957;-84
2021/08/07 08:37:20;;;;;;;;;;;;;;;24.86;54.14;99971.55;1448163;90;20418;-83
2021/08/07 08:39:46;;;;;;;;;;;;;;;24.97;55.80;99977.37;1437870;90;20325;-83
2021/08/07 08:42:12;;;;;;;;;;;;;;;25.03;55.26;99981.80;1443676;90;20419;-83
2021/08/07 08:44:38;;;;;;;;;;;;;;;25.18;52.96;99992.81;1447742;90;20369;-83
2021/08/07 08:47:06;;;;;;;;;;;;;;;25.23;52.89;99991.22;1450354;90;20325;-83
2021/08/07 08:49:33;;;;;;;;;;;;;;;25.37;53.72;99988.38;1445610;91;20770;-83
2021/08/07 08:52:01;;;;;;;;;;;;;;;25.54;52.61;99989.62;1441485;91;20303;-83
2021/08/07 08:54:28;;;;;;;;;;;;;;;25.59;51.97;99995.91;1441615;91;20340;-84
2021/08/07 08:56:54;;;;;;;;;;;;;;;25.68;51.17;99990.03;1440193;90;20243;-83
2021/08/07 08:59:21;;;;;;;;;;;;;;;25.77;52.00;99988.47;1437400;91;20815;-82
2021/08/07 09:01:48;;;;;;;;;;;;;;;25.81;49.72;99988.25;1447876;91;20272;-83
2021/08/07 09:04:14;;;;;;;;;;;;;;;25.85;50.19;99989.39;1441028;91;20811;-83
2021/08/07 09:06:40;;;;;;;;;;;;;;;25.95;49.50;99989.48;1438742;90;20325;-83
2021/08/07 09:09:09;;;;;;;;;;;;;;;26.00;47.64;99996.27;1440109;91;20236;-83
2021/08/07 09:11:50;;;;;;;;;;;;;;;25.90;47.87;99993.50;1436410;91;20332;-82
2021/08/07 09:14:30;;;;;;;;;;;;;;;25.94;48.31;100000.03;1440217;91;20295;-83
2021/08/07 09:17:04;;;;;;;;;;;;;;;25.90;48.16;99996.76;1444488;91;20308;-83
2021/08/07 09:19:43;;;;;;;;;;;;;;;25.92;49.24;99990.52;1442058;91;20243;-84
2021/08/07 09:22:18;;;;;;;;;;;;;;;25.91;49.10;99998.38;1437994;91;20295;-84
2021/08/07 09:25:03;;;;;;;;;;;;;;;25.98;48.88;99993.54;1433471;91;20266;-82
2021/08/07 09:27:35;;;;;;;;;;;;;;;26.15;49.10;99993.39;1443692;91;20323;-84
2021/08/07 09:30:19;;;;;;;;;;;;;;;26.25;47.88;99986.14;1439743;91;20940;-83
2021/08/07 09:32:50;;;;;;;;;;;;;;;26.46;48.93;99991.14;1437332;90;20420;-83
2021/08/07 09:35:19;;;;;;;;;;;;;;;26.64;48.90;99989.89;1440803;91;20355;-83
2021/08/07 09:37:46;;;;;;;;;;;;;;;26.69;48.25;99997.25;1440758;91;20324;-84
2021/08/07 09:40:13;;;;;;;;;;;;;;;26.74;47.90;99983.71;1446855;90;20352;-83
2021/08/07 09:42:53;;;;;;;;;;;;;;;26.83;46.17;99990.80;1440479;91;20869;-85
2021/08/07 09:45:26;;;;;;;;;;;;;;;26.84;45.63;99994.59;1440686;91;20264;-84
2021/08/07 09:48:00;;;;;;;;;;;;;;;26.99;47.01;99987.07;1447810;90;20316;-84
2021/08/07 09:50:28;;;;;;;;;;;;;;;27.08;44.78;99990.08;1441351;90;20303;-84
2021/08/07 09:52:55;;;;;;;;;;;;;;;27.14;44.65;99986.30;1444668;91;20303;-85
2021/08/07 09:55:22;;;;;;;;;;;;;;;27.21;46.27;99996.38;1439829;91;20315;-84
2021/08/07 09:58:04;;;;;;;;;;;;;;;27.21;45.12;99995.02;1431994;90;20741;-84
2021/08/07 10:00:42;;;;;;;;;;;;;;;27.29;45.22;99987.70;1438368;91;20302;-85
2021/08/07 10:03:16;;;;;;;;;;;;;;;27.32;44.52;99991.78;1433864;91;20354;-84
2021/08/07 10:05:43;;;;;;;;;;;;;;;27.37;44.81;99985.01;1439176;90;20258;-83
2021/08/07 10:08:11;;;;;;;;;;;;;;;27.59;46.41;99983.38;1437636;90;20296;-83
2021/08/07 10:10:37;;;;;;;;;;;;;;;27.75;45.74;99982.30;1435500;91;20265;-83
2021/08/07 10:13:04;;;;;;;;;;;;;;;27.84;42.29;99990.21;1442684;90;20272;-83
2021/08/07 10:15:30;;;;;;;;;;;;;;;27.94;44.61;99985.84;1437944;91;20458;-83
2021/08/07 10:17:56;;;;;;;;;;;;;;;28.05;43.52;99977.95;1440749;91;20310;-83
2021/08/07 10:20:23;;;;;;;;;;;;;;;28.19;43.50;99980.38;1439105;90;20369;-84
2021/08/07 10:22:50;;;;;;;;;;;;;;;28.22;42.31;99978.46;1440555;91;20436;-84
2021/08/07 10:25:17;;;;;;;;;;;;;;;28.31;42.20;99984.16;1433712;91;20837;-83
2021/08/07 10:27:44;;;;;;;;;;;;;;;28.35;40.89;99982.53;1440516;91;20317;-83
2021/08/07 10:30:13;;;;;;;;;;;;;;;28.29;38.40;99979.56;1436261;90;20316;-84
2021/08/07 10:32:44;;;;;;;;;;;;;;;28.38;39.46;99983.89;1445580;91;20317;-84
2021/08/07 10:35:12;;;;;;;;;;;;;;;28.43;38.63;99985.27;1450059;91;20807;-83
2021/08/07 10:37:39;;;;;;;;;;;;;;;28.39;38.59;99982.78;1445719;91;20244;-84
2021/08/07 10:40:07;;;;;;;;;;;;;;;28.45;39.75;99978.98;1449395;91;20455;-83
2021/08/07 10:42:34;;;;;;;;;;;;;;;28.54;40.04;99975.95;1441782;90;20251;-84
2021/08/07 10:45:03;;;;;;;;;;;;;;;28.57;38.50;99976.79;1445247;91;20363;-84
2021/08/07 10:47:37;;;;;;;;;;;;;;;28.61;39.88;99971.59;1442707;90;20287;-84
2021/08/07 10:50:28;;;;;;;;;;;;;;;28.76;39.92;99975.05;1447732;91;20289;-85
2021/08/07 10:53:03;;;;;;;;;;;;;;;28.86;38.65;99969.28;1435574;91;20733;-83
2021/08/07 10:55:53;;;;;;;;;;;;;;;28.90;38.00;99960.84;1441879;90;20376;-83
2021/08/07 10:58:39;;;;;;;;;;;;;;;28.91;37.59;99966.55;1441234;91;20257;-82
2021/08/07 11:01:26;;;;;;;;;;;;;;;29.01;37.33;99961.86;1442054;90;20376;-84
2021/08/07 11:04:07;;;;;;;;;;;;;;;29.13;37.17;99962.91;1437967;91;20243;-83
2021/08/07 11:06:50;;;;;;;;;;;;;;;29.13;36.73;99960.19;1450390;90;20309;-84
2021/08/07 11:09:24;;;;;;;;;;;;;;;29.24;37.96;99959.02;1443596;91;20228;-83
2021/08/07 11:12:13;;;;;;;;;;;;;;;28.99;37.11;99967.32;1443233;90;21513;-83
2021/08/07 11:14:45;;;;;;;;;;;;;;;29.16;37.45;99960.98;1441033;91;20770;-83
2021/08/07 11:17:14;;;;;;;;;;;;;;;29.42;36.56;99962.17;1435184;90;20361;-85
2021/08/07 11:19:48;;;;;;;;;;;;;;;29.59;33.26;99965.30;1441669;91;20257;-83
2021/08/07 11:22:19;;;;;;;;;;;;;;;29.75;33.17;99961.11;1418830;92;20245;-84
2021/08/07 11:24:51;;;;;;;;;;;;;;;29.98;33.14;99964.45;1392011;94;20323;-83
2021/08/07 11:27:17;;;;;;;;;;;;;;;29.95;32.61;99966.37;1407245;92;20283;-84
2021/08/07 11:30:16;;;;;;;;;;;;;;;29.97;33.45;99961.45;1418013;92;20332;-84
2021/08/07 11:32:45;;;;;;;;;;;;;;;29.94;32.16;99943.48;1403379;92;20779;-84
2021/08/07 11:35:11;;;;;;;;;;;;;;;30.05;32.85;99956.73;1409912;92;21102;-85
2021/08/07 11:37:37;;;;;;;;;;;;;;;30.09;31.92;99950.95;1418623;92;20370;-84
2021/08/07 11:40:08;;;;;;;;;;;;;;;30.12;32.13;99953.13;1407076;92;20336;-84
2021/08/07 11:42:37;;;;;;;;;;;;;;;30.19;33.25;99954.14;1408210;92;20891;-83
2021/08/07 11:45:03;;;;;;;;;;;;;;;30.40;34.27;99958.84;1414143;92;20496;-84
2021/08/07 11:47:29;;;;;;;;;;;;;;;30.26;32.92;99957.91;1413619;92;20391;-84
2021/08/07 11:49:56;;;;;;;;;;;;;;;29.97;30.14;99951.90;1440190;90;20235;-84
2021/08/07 11:52:24;;;;;;;;;;;;;;;30.03;31.96;99958.13;1444006;90;20263;-84
2021/08/07 11:54:53;;;;;;;;;;;;;;;30.29;32.73;99959.50;1446406;90;20335;-85
2021/08/07 11:57:23;;;;;;;;;;;;;;;30.52;31.70;99961.96;1444237;90;20243;-84
2021/08/07 11:59:49;;;;;;;;;;;;;;;30.50;31.95;99957.37;1463337;89;20331;-84
2021/08/07 12:02:15;;;;;;;;;;;;;;;30.28;29.55;99957.08;1463581;89;20310;-84
2021/08/07 12:04:42;;;;;;;;;;;;;;;30.08;32.29;99958.88;1465192;89;20355;-84
2021/08/07 12:07:13;;;;;;;;;;;;;;;29.93;33.50;99959.60;1457486;89;20933;-84
2021/08/07 12:09:59;;;;;;;;;;;;;;;29.80;32.89;99960.52;1460309;89;20318;-85
2021/08/07 12:12:25;;;;;;;;;;;;;;;29.91;29.84;99951.69;1459117;89;20551;-84
2021/08/07 12:14:51;;;;;;;;;;;;;;;30.00;30.44;99952.69;1466746;89;20340;-83
2021/08/07 12:17:17;;;;;;;;;;;;;;;29.76;31.25;99961.39;1468156;89;20735;-84
2021/08/07 12:19:44;;;;;;;;;;;;;;;29.70;32.05;99961.98;1471302;89;20347;-85
2021/08/07 12:22:10;;;;;;;;;;;;;;;29.78;31.32;99957.80;1455411;89;20317;-84
2021/08/07 12:24:36;;;;;;;;;;;;;;;29.97;31.45;99964.17;1458330;89;20437;-83
2021/08/07 12:27:02;;;;;;;;;;;;;;;30.17;32.73;99960.43;1456151;89;20422;-83
2021/08/07 12:29:30;;;;;;;;;;;;;;;30.40;30.98;99964.30;1453040;89;20317;-84
2021/08/07 12:31:59;;;;;;;;;;;;;;;30.45;30.71;99957.98;1464645;89;20280;-84
2021/08/07 12:34:30;;;;;;;;;;;;;;;30.53;29.86;99951.32;1464399;89;21535;-84
2021/08/07 12:37:03;;;;;;;;;;;;;;;30.64;31.40;99948.45;1468967;89;20297;-83
2021/08/07 12:39:32;;;;;;;;;;;;;;;30.61;30.72;99944.38;1460068;89;20872;-84
2021/08/07 12:41:58;;;;;;;;;;;;;;;30.70;30.57;99934.45;1468572;89;20884;-84
2021/08/07 12:44:26;;;;;;;;;;;;;;;30.68;31.06;99954.41;1469646;89;20400;-84
2021/08/07 12:46:56;;;;;;;;;;;;;;;30.74;31.33;99948.33;1461333;89;20287;-84
2021/08/07 12:49:46;;;;;;;;;;;;;;;30.95;30.40;99943.42;1467880;89;20422;-85
2021/08/07 12:52:15;;;;;;;;;;;;;;;31.21;30.52;99957.52;1459856;89;20319;-84